sensor_id;sensor_type;location;lat;lon;timestamp;temperature;humidity
28763;DHT22;15918;51.270;6.522;2023-03-23T00:01:24;14.60;69.40
28763;DHT22;15918;51.270;6.522;2023-03-23T00:03:53;14.60;69.40
28763;DHT22;15918;51.270;6.522;2023-03-23T00:06:22;14.70;69.50
28763;DHT22;15918;51.270;6.522;2023-03-23T00:08:50;14.70;69.50
28763;DHT22;15918;51.270;6.522;2023-03-23T00:11:21;14.60;69.30
28763;DHT22;15918;51.270;6.522;2023-03-23T00:13:49;14.70;69.40
28763;DHT22;15918;51.270;6.522;2023-03-23T00:16:17;14.70;69.40
28763;DHT22;15918;51.270;6.522;2023-03-23T00:18:52;14.70;69.40
28763;DHT22;15918;51.270;6.522;2023-03-23T00:21:22;14.70;69.30
28763;DHT22;15918;51.270;6.522;2023-03-23T00:24:16;14.70;69.40
28763;DHT22;15918;51.270;6.522;2023-03-23T00:26:44;14.60;69.30
28763;DHT22;15918;51.270;6.522;2023-03-23T00:29:19;14.70;69.40
28763;DHT22;15918;51.270;6.522;2023-03-23T00:31:46;14.60;69.30
28763;DHT22;15918;51.270;6.522;2023-03-23T00:34:17;14.60;69.20
28763;DHT22;15918;51.270;6.522;2023-03-23T00:36:52;14.60;69.20
28763;DHT22;15918;51.270;6.522;2023-03-23T00:39:22;14.70;69.30
28763;DHT22;15918;51.270;6.522;2023-03-23T00:41:51;14.60;69.20
28763;DHT22;15918;51.270;6.522;2023-03-23T00:44:17;14.70;69.30
28763;DHT22;15918;51.270;6.522;2023-03-23T00:46:43;14.60;69.20
28763;DHT22;15918;51.270;6.522;2023-03-23T00:49:15;14.60;69.20
28763;DHT22;15918;51.270;6.522;2023-03-23T00:51:42;14.60;69.20
28763;DHT22;15918;51.270;6.522;2023-03-23T00:54:08;14.60;69.20
28763;DHT22;15918;51.270;6.522;2023-03-23T00:56:34;14.60;69.20
28763;DHT22;15918;51.270;6.522;2023-03-23T00:59:00;14.70;70.00
28763;DHT22;15918;51.270;6.522;2023-03-23T01:01:26;14.60;69.20
28763;DHT22;15918;51.270;6.522;2023-03-23T01:03:51;14.60;69.30
28763;DHT22;15918;51.270;6.522;2023-03-23T01:06:27;14.60;69.30
28763;DHT22;15918;51.270;6.522;2023-03-23T01:08:53;14.60;69.40
28763;DHT22;15918;51.270;6.522;2023-03-23T01:11:19;14.60;69.40
28763;DHT22;15918;51.270;6.522;2023-03-23T01:13:46;14.70;69.40
28763;DHT22;15918;51.270;6.522;2023-03-23T01:16:12;14.60;69.30
28763;DHT22;15918;51.270;6.522;2023-03-23T01:18:38;14.60;69.30
28763;DHT22;15918;51.270;6.522;2023-03-23T01:21:06;14.60;69.30
28763;DHT22;15918;51.270;6.522;2023-03-23T01:23:33;14.60;69.30
28763;DHT22;15918;51.270;6.522;2023-03-23T01:26:07;14.70;69.40
28763;DHT22;15918;51.270;6.522;2023-03-23T01:28:34;14.60;69.30
28763;DHT22;15918;51.270;6.522;2023-03-23T01:31:06;14.60;69.30
28763;DHT22;15918;51.270;6.522;2023-03-23T01:33:32;14.60;69.30
28763;DHT22;15918;51.270;6.522;2023-03-23T01:36:01;14.60;69.40
28763;DHT22;15918;51.270;6.522;2023-03-23T01:38:27;14.60;69.50
28763;DHT22;15918;51.270;6.522;2023-03-23T01:40:52;14.60;69.50
28763;DHT22;15918;51.270;6.522;2023-03-23T01:43:18;14.60;69.50
28763;DHT22;15918;51.270;6.522;2023-03-23T01:45:44;14.60;69.50
28763;DHT22;15918;51.270;6.522;2023-03-23T01:51:03;14.60;69.50
28763;DHT22;15918;51.270;6.522;2023-03-23T01:53:36;14.60;69.50
28763;DHT22;15918;51.270;6.522;2023-03-23T01:56:03;14.60;69.70
28763;DHT22;15918;51.270;6.522;2023-03-23T01:58:32;14.60;69.70
28763;DHT22;15918;51.270;6.522;2023-03-23T02:01:02;14.60;69.70
28763;DHT22;15918;51.270;6.522;2023-03-23T02:03:29;14.60;69.70
28763;DHT22;15918;51.270;6.522;2023-03-23T02:05:57;14.60;69.70
28763;DHT22;15918;51.270;6.522;2023-03-23T02:08:26;14.60;70.50
28763;DHT22;15918;51.270;6.522;2023-03-23T02:10:53;14.60;69.80
28763;DHT22;15918;51.270;6.522;2023-03-23T02:13:19;14.60;69.90
28763;DHT22;15918;51.270;6.522;2023-03-23T02:16:13;14.60;69.90
28763;DHT22;15918;51.270;6.522;2023-03-23T02:27:58;14.60;69.90
28763;DHT22;15918;51.270;6.522;2023-03-23T02:30:45;14.60;69.90
28763;DHT22;15918;51.270;6.522;2023-03-23T02:33:30;14.60;70.10
28763;DHT22;15918;51.270;6.522;2023-03-23T02:36:02;14.60;70.00
28763;DHT22;15918;51.270;6.522;2023-03-23T02:38:35;14.60;70.10
28763;DHT22;15918;51.270;6.522;2023-03-23T02:41:03;14.60;70.00
28763;DHT22;15918;51.270;6.522;2023-03-23T02:43:33;14.60;70.10
28763;DHT22;15918;51.270;6.522;2023-03-23T02:46:04;14.60;70.10
28763;DHT22;15918;51.270;6.522;2023-03-23T02:48:32;14.60;70.00
28763;DHT22;15918;51.270;6.522;2023-03-23T02:50:59;14.70;70.10
28763;DHT22;15918;51.270;6.522;2023-03-23T02:53:26;14.60;69.90
28763;DHT22;15918;51.270;6.522;2023-03-23T02:55:54;14.60;69.90
28763;DHT22;15918;51.270;6.522;2023-03-23T02:58:21;14.60;69.90
28763;DHT22;15918;51.270;6.522;2023-03-23T03:00:49;14.60;70.00
28763;DHT22;15918;51.270;6.522;2023-03-23T03:03:21;14.60;70.00
28763;DHT22;15918;51.270;6.522;2023-03-23T03:08:52;14.60;69.90
28763;DHT22;15918;51.270;6.522;2023-03-23T03:11:21;14.60;69.90
28763;DHT22;15918;51.270;6.522;2023-03-23T03:19:07;14.60;69.90
28763;DHT22;15918;51.270;6.522;2023-03-23T03:21:39;14.60;69.90
28763;DHT22;15918;51.270;6.522;2023-03-23T03:24:08;14.60;70.00
28763;DHT22;15918;51.270;6.522;2023-03-23T03:26:39;14.60;70.00
28763;DHT22;15918;51.270;6.522;2023-03-23T03:29:06;14.50;70.00
28763;DHT22;15918;51.270;6.522;2023-03-23T03:31:36;14.60;70.00
28763;DHT22;15918;51.270;6.522;2023-03-23T03:34:04;14.60;70.00
28763;DHT22;15918;51.270;6.522;2023-03-23T03:36:32;14.50;69.90
28763;DHT22;15918;51.270;6.522;2023-03-23T03:39:03;14.50;69.90
28763;DHT22;15918;51.270;6.522;2023-03-23T03:41:30;14.60;70.00
28763;DHT22;15918;51.270;6.522;2023-03-23T03:43:55;14.50;69.90
28763;DHT22;15918;51.270;6.522;2023-03-23T03:46:21;14.50;69.90
28763;DHT22;15918;51.270;6.522;2023-03-23T03:48:47;14.50;69.90
28763;DHT22;15918;51.270;6.522;2023-03-23T03:51:12;14.60;70.00
28763;DHT22;15918;51.270;6.522;2023-03-23T03:53:38;14.50;70.00
28763;DHT22;15918;51.270;6.522;2023-03-23T03:56:04;14.60;70.00
28763;DHT22;15918;51.270;6.522;2023-03-23T03:58:30;14.50;70.00
28763;DHT22;15918;51.270;6.522;2023-03-23T04:01:00;14.50;70.00
28763;DHT22;15918;51.270;6.522;2023-03-23T04:03:26;14.50;70.00
28763;DHT22;15918;51.270;6.522;2023-03-23T04:05:53;14.50;70.10
28763;DHT22;15918;51.270;6.522;2023-03-23T04:08:24;14.50;70.20
28763;DHT22;15918;51.270;6.522;2023-03-23T04:10:50;14.50;70.20
28763;DHT22;15918;51.270;6.522;2023-03-23T04:13:16;14.60;70.30
28763;DHT22;15918;51.270;6.522;2023-03-23T04:15:43;14.50;70.20
28763;DHT22;15918;51.270;6.522;2023-03-23T04:18:09;14.50;70.20
28763;DHT22;15918;51.270;6.522;2023-03-23T04:20:34;14.50;70.30
28763;DHT22;15918;51.270;6.522;2023-03-23T04:23:00;14.50;70.30
28763;DHT22;15918;51.270;6.522;2023-03-23T04:25:27;14.60;70.40
28763;DHT22;15918;51.270;6.522;2023-03-23T04:27:53;14.50;70.30
28763;DHT22;15918;51.270;6.522;2023-03-23T04:30:23;14.50;70.30
28763;DHT22;15918;51.270;6.522;2023-03-23T04:32:51;14.50;70.30
28763;DHT22;15918;51.270;6.522;2023-03-23T04:35:18;14.50;70.40
28763;DHT22;15918;51.270;6.522;2023-03-23T04:37:45;14.50;70.30
28763;DHT22;15918;51.270;6.522;2023-03-23T04:40:11;14.50;70.30
28763;DHT22;15918;51.270;6.522;2023-03-23T04:42:41;14.60;70.30
28763;DHT22;15918;51.270;6.522;2023-03-23T04:45:15;14.50;70.30
28763;DHT22;15918;51.270;6.522;2023-03-23T04:47:42;14.50;70.30
28763;DHT22;15918;51.270;6.522;2023-03-23T04:50:14;14.50;70.30
28763;DHT22;15918;51.270;6.522;2023-03-23T04:52:40;14.50;70.30
28763;DHT22;15918;51.270;6.522;2023-03-23T04:55:12;14.50;70.30
28763;DHT22;15918;51.270;6.522;2023-03-23T04:57:39;14.50;70.20
28763;DHT22;15918;51.270;6.522;2023-03-23T05:00:06;14.50;70.30
28763;DHT22;15918;51.270;6.522;2023-03-23T05:02:38;14.60;70.30
28763;DHT22;15918;51.270;6.522;2023-03-23T05:05:09;14.50;70.20
28763;DHT22;15918;51.270;6.522;2023-03-23T05:07:37;14.50;70.20
28763;DHT22;15918;51.270;6.522;2023-03-23T05:10:04;14.50;70.20
28763;DHT22;15918;51.270;6.522;2023-03-23T05:12:29;14.60;70.20
28763;DHT22;15918;51.270;6.522;2023-03-23T05:14:55;14.50;70.20
28763;DHT22;15918;51.270;6.522;2023-03-23T05:17:21;14.50;70.20
28763;DHT22;15918;51.270;6.522;2023-03-23T05:19:50;14.60;70.20
28763;DHT22;15918;51.270;6.522;2023-03-23T05:22:16;14.50;70.20
28763;DHT22;15918;51.270;6.522;2023-03-23T05:24:42;14.50;70.20
28763;DHT22;15918;51.270;6.522;2023-03-23T05:27:09;14.50;70.20
28763;DHT22;15918;51.270;6.522;2023-03-23T05:29:35;14.50;70.20
28763;DHT22;15918;51.270;6.522;2023-03-23T05:32:03;14.50;70.20
28763;DHT22;15918;51.270;6.522;2023-03-23T05:34:29;14.60;70.30
28763;DHT22;15918;51.270;6.522;2023-03-23T05:36:58;14.50;70.20
28763;DHT22;15918;51.270;6.522;2023-03-23T05:39:25;14.50;70.20
28763;DHT22;15918;51.270;6.522;2023-03-23T05:41:51;14.60;70.30
28763;DHT22;15918;51.270;6.522;2023-03-23T05:44:18;14.50;70.20
28763;DHT22;15918;51.270;6.522;2023-03-23T05:46:44;14.60;70.30
28763;DHT22;15918;51.270;6.522;2023-03-23T05:49:10;14.50;70.20
28763;DHT22;15918;51.270;6.522;2023-03-23T05:51:36;14.50;70.20
28763;DHT22;15918;51.270;6.522;2023-03-23T05:54:02;14.50;70.20
28763;DHT22;15918;51.270;6.522;2023-03-23T05:56:28;14.60;70.30
28763;DHT22;15918;51.270;6.522;2023-03-23T05:58:55;14.60;70.20
28763;DHT22;15918;51.270;6.522;2023-03-23T06:01:21;14.60;70.20
28763;DHT22;15918;51.270;6.522;2023-03-23T06:03:46;14.50;70.20
28763;DHT22;15918;51.270;6.522;2023-03-23T06:06:16;14.50;70.20
28763;DHT22;15918;51.270;6.522;2023-03-23T06:08:43;14.50;70.20
28763;DHT22;15918;51.270;6.522;2023-03-23T06:11:09;14.50;70.20
28763;DHT22;15918;51.270;6.522;2023-03-23T06:13:35;14.50;70.20
28763;DHT22;15918;51.270;6.522;2023-03-23T06:16:02;14.50;70.10
28763;DHT22;15918;51.270;6.522;2023-03-23T06:18:29;14.50;70.20
28763;DHT22;15918;51.270;6.522;2023-03-23T06:20:55;14.50;70.20
28763;DHT22;15918;51.270;6.522;2023-03-23T06:23:21;14.50;70.10
28763;DHT22;15918;51.270;6.522;2023-03-23T06:25:46;14.50;70.10
28763;DHT22;15918;51.270;6.522;2023-03-23T06:28:12;14.50;70.10
28763;DHT22;15918;51.270;6.522;2023-03-23T06:30:37;14.50;70.00
28763;DHT22;15918;51.270;6.522;2023-03-23T06:33:03;14.50;70.10
28763;DHT22;15918;51.270;6.522;2023-03-23T06:35:31;14.50;70.10
28763;DHT22;15918;51.270;6.522;2023-03-23T06:37:57;14.50;70.00
28763;DHT22;15918;51.270;6.522;2023-03-23T06:40:27;14.50;70.00
28763;DHT22;15918;51.270;6.522;2023-03-23T06:42:53;14.50;69.90
28763;DHT22;15918;51.270;6.522;2023-03-23T06:45:18;14.50;69.90
28763;DHT22;15918;51.270;6.522;2023-03-23T06:47:45;14.50;69.90
28763;DHT22;15918;51.270;6.522;2023-03-23T06:50:14;14.50;69.90
28763;DHT22;15918;51.270;6.522;2023-03-23T06:52:40;14.50;69.80
28763;DHT22;15918;51.270;6.522;2023-03-23T06:55:06;14.50;69.80
28763;DHT22;15918;51.270;6.522;2023-03-23T06:57:32;14.50;69.80
28763;DHT22;15918;51.270;6.522;2023-03-23T06:59:58;14.50;69.80
28763;DHT22;15918;51.270;6.522;2023-03-23T07:02:23;14.50;69.80
28763;DHT22;15918;51.270;6.522;2023-03-23T07:04:49;14.50;69.80
28763;DHT22;15918;51.270;6.522;2023-03-23T07:07:15;14.50;69.70
28763;DHT22;15918;51.270;6.522;2023-03-23T07:09:44;14.50;69.70
28763;DHT22;15918;51.270;6.522;2023-03-23T07:12:09;14.60;69.70
28763;DHT22;15918;51.270;6.522;2023-03-23T07:14:35;14.50;69.60
28763;DHT22;15918;51.270;6.522;2023-03-23T07:17:03;14.50;69.60
28763;DHT22;15918;51.270;6.522;2023-03-23T07:19:28;14.60;69.60
28763;DHT22;15918;51.270;6.522;2023-03-23T07:21:54;14.60;69.70
28763;DHT22;15918;51.270;6.522;2023-03-23T07:24:19;14.60;69.60
28763;DHT22;15918;51.270;6.522;2023-03-23T07:26:45;14.60;69.60
28763;DHT22;15918;51.270;6.522;2023-03-23T07:29:11;14.60;69.50
28763;DHT22;15918;51.270;6.522;2023-03-23T07:31:36;14.60;69.50
28763;DHT22;15918;51.270;6.522;2023-03-23T07:34:02;14.50;69.40
28763;DHT22;15918;51.270;6.522;2023-03-23T07:36:28;14.60;69.50
28763;DHT22;15918;51.270;6.522;2023-03-23T07:38:54;14.60;69.50
28763;DHT22;15918;51.270;6.522;2023-03-23T07:41:20;14.60;69.50
28763;DHT22;15918;51.270;6.522;2023-03-23T07:43:46;14.60;69.50
28763;DHT22;15918;51.270;6.522;2023-03-23T07:46:12;14.60;69.40
28763;DHT22;15918;51.270;6.522;2023-03-23T07:48:38;14.60;69.40
28763;DHT22;15918;51.270;6.522;2023-03-23T07:51:04;14.60;69.30
28763;DHT22;15918;51.270;6.522;2023-03-23T07:53:30;14.60;69.30
28763;DHT22;15918;51.270;6.522;2023-03-23T07:55:56;14.60;69.30
28763;DHT22;15918;51.270;6.522;2023-03-23T07:58:22;14.60;69.30
28763;DHT22;15918;51.270;6.522;2023-03-23T08:00:48;14.60;69.20
28763;DHT22;15918;51.270;6.522;2023-03-23T08:03:14;14.60;69.10
28763;DHT22;15918;51.270;6.522;2023-03-23T08:05:41;14.70;69.20
28763;DHT22;15918;51.270;6.522;2023-03-23T08:08:08;14.60;69.10
28763;DHT22;15918;51.270;6.522;2023-03-23T08:10:35;14.70;69.10
28763;DHT22;15918;51.270;6.522;2023-03-23T08:13:01;14.60;68.90
28763;DHT22;15918;51.270;6.522;2023-03-23T08:15:27;14.70;69.00
28763;DHT22;15918;51.270;6.522;2023-03-23T08:17:54;14.60;69.60
28763;DHT22;15918;51.270;6.522;2023-03-23T08:20:20;14.60;68.80
28763;DHT22;15918;51.270;6.522;2023-03-23T08:22:51;14.70;68.80
28763;DHT22;15918;51.270;6.522;2023-03-23T08:25:18;14.70;68.80
28763;DHT22;15918;51.270;6.522;2023-03-23T08:27:44;14.70;68.80
28763;DHT22;15918;51.270;6.522;2023-03-23T08:30:16;14.70;68.70
28763;DHT22;15918;51.270;6.522;2023-03-23T08:32:42;14.70;68.70
28763;DHT22;15918;51.270;6.522;2023-03-23T08:35:10;14.70;68.70
28763;DHT22;15918;51.270;6.522;2023-03-23T08:37:37;14.70;68.60
28763;DHT22;15918;51.270;6.522;2023-03-23T08:40:04;14.70;68.50
28763;DHT22;15918;51.270;6.522;2023-03-23T08:42:36;14.70;68.40
28763;DHT22;15918;51.270;6.522;2023-03-23T08:45:04;14.80;68.50
28763;DHT22;15918;51.270;6.522;2023-03-23T08:47:30;14.80;68.40
28763;DHT22;15918;51.270;6.522;2023-03-23T08:49:57;14.80;68.30
28763;DHT22;15918;51.270;6.522;2023-03-23T08:52:23;14.80;68.20
28763;DHT22;15918;51.270;6.522;2023-03-23T08:54:49;14.80;68.20
28763;DHT22;15918;51.270;6.522;2023-03-23T08:57:14;14.80;68.00
28763;DHT22;15918;51.270;6.522;2023-03-23T08:59:41;14.80;68.00
28763;DHT22;15918;51.270;6.522;2023-03-23T09:02:10;14.80;68.00
28763;DHT22;15918;51.270;6.522;2023-03-23T09:04:40;14.80;67.90
28763;DHT22;15918;51.270;6.522;2023-03-23T09:07:08;14.80;67.90
28763;DHT22;15918;51.270;6.522;2023-03-23T09:09:34;14.80;67.90
28763;DHT22;15918;51.270;6.522;2023-03-23T09:12:00;14.80;67.80
28763;DHT22;15918;51.270;6.522;2023-03-23T09:14:26;14.90;67.80
28763;DHT22;15918;51.270;6.522;2023-03-23T09:16:52;14.90;67.70
28763;DHT22;15918;51.270;6.522;2023-03-23T09:19:17;14.90;67.60
28763;DHT22;15918;51.270;6.522;2023-03-23T09:21:43;14.90;67.60
28763;DHT22;15918;51.270;6.522;2023-03-23T09:24:11;14.90;67.50
28763;DHT22;15918;51.270;6.522;2023-03-23T09:26:36;14.90;67.50
28763;DHT22;15918;51.270;6.522;2023-03-23T09:29:02;14.90;67.40
28763;DHT22;15918;51.270;6.522;2023-03-23T09:31:28;14.90;67.30
28763;DHT22;15918;51.270;6.522;2023-03-23T09:33:54;14.90;67.40
28763;DHT22;15918;51.270;6.522;2023-03-23T09:36:22;14.90;67.50
28763;DHT22;15918;51.270;6.522;2023-03-23T09:38:48;14.90;67.90
28763;DHT22;15918;51.270;6.522;2023-03-23T09:49:37;14.80;69.00
28763;DHT22;15918;51.270;6.522;2023-03-23T09:52:10;14.70;69.10
28763;DHT22;15918;51.270;6.522;2023-03-23T09:54:38;14.70;69.30
28763;DHT22;15918;51.270;6.522;2023-03-23T09:57:14;14.70;69.30
28763;DHT22;15918;51.270;6.522;2023-03-23T09:59:58;14.70;69.40
28763;DHT22;15918;51.270;6.522;2023-03-23T10:05:47;14.70;69.70
28763;DHT22;15918;51.270;6.522;2023-03-23T10:08:18;14.70;69.90
28763;DHT22;15918;51.270;6.522;2023-03-23T10:11:04;14.70;70.00
28763;DHT22;15918;51.270;6.522;2023-03-23T10:16:29;14.60;70.00
28763;DHT22;15918;51.270;6.522;2023-03-23T10:19:07;14.60;70.10
28763;DHT22;15918;51.270;6.522;2023-03-23T10:21:39;14.60;70.20
28763;DHT22;15918;51.270;6.522;2023-03-23T10:24:11;14.60;70.40
28763;DHT22;15918;51.270;6.522;2023-03-23T10:29:50;14.60;70.50
28763;DHT22;15918;51.270;6.522;2023-03-23T10:32:34;14.60;70.50
28763;DHT22;15918;51.270;6.522;2023-03-23T10:35:04;14.50;70.60
28763;DHT22;15918;51.270;6.522;2023-03-23T10:37:40;14.50;70.70
28763;DHT22;15918;51.270;6.522;2023-03-23T10:40:20;14.50;70.80
28763;DHT22;15918;51.270;6.522;2023-03-23T10:42:49;14.50;70.80
28763;DHT22;15918;51.270;6.522;2023-03-23T10:45:17;14.50;70.90
28763;DHT22;15918;51.270;6.522;2023-03-23T10:47:49;14.50;71.00
28763;DHT22;15918;51.270;6.522;2023-03-23T10:50:22;14.50;71.10
28763;DHT22;15918;51.270;6.522;2023-03-23T10:52:50;14.50;71.20
28763;DHT22;15918;51.270;6.522;2023-03-23T10:55:21;14.50;71.30
28763;DHT22;15918;51.270;6.522;2023-03-23T11:00:27;14.50;71.40
28763;DHT22;15918;51.270;6.522;2023-03-23T11:02:58;14.40;71.50
28763;DHT22;15918;51.270;6.522;2023-03-23T11:05:31;14.40;71.60
28763;DHT22;15918;51.270;6.522;2023-03-23T11:07:59;14.40;71.70
28763;DHT22;15918;51.270;6.522;2023-03-23T11:10:40;14.40;71.80
28763;DHT22;15918;51.270;6.522;2023-03-23T11:13:13;14.50;71.90
28763;DHT22;15918;51.270;6.522;2023-03-23T11:15:41;14.40;72.10
28763;DHT22;15918;51.270;6.522;2023-03-23T11:18:12;14.40;72.20
28763;DHT22;15918;51.270;6.522;2023-03-23T11:20:44;14.50;72.40
28763;DHT22;15918;51.270;6.522;2023-03-23T11:23:17;14.40;72.50
28763;DHT22;15918;51.270;6.522;2023-03-23T11:25:54;14.40;72.70
28763;DHT22;15918;51.270;6.522;2023-03-23T11:28:20;14.40;72.70
28763;DHT22;15918;51.270;6.522;2023-03-23T11:30:46;14.40;72.90
28763;DHT22;15918;51.270;6.522;2023-03-23T11:33:12;14.50;73.00
28763;DHT22;15918;51.270;6.522;2023-03-23T11:35:44;14.50;73.20
28763;DHT22;15918;51.270;6.522;2023-03-23T11:38:19;14.50;73.20
28763;DHT22;15918;51.270;6.522;2023-03-23T11:40:50;14.50;73.30
28763;DHT22;15918;51.270;6.522;2023-03-23T11:43:24;14.50;73.30
28763;DHT22;15918;51.270;6.522;2023-03-23T11:46:03;14.50;73.30
28763;DHT22;15918;51.270;6.522;2023-03-23T11:48:43;14.50;73.30
28763;DHT22;15918;51.270;6.522;2023-03-23T11:51:38;14.50;73.50
28763;DHT22;15918;51.270;6.522;2023-03-23T11:54:11;14.50;73.40
28763;DHT22;15918;51.270;6.522;2023-03-23T11:56:41;14.50;73.60
28763;DHT22;15918;51.270;6.522;2023-03-23T11:59:26;14.60;73.70
28763;DHT22;15918;51.270;6.522;2023-03-23T12:05:04;14.60;73.70
28763;DHT22;15918;51.270;6.522;2023-03-23T12:07:40;14.60;73.70
28763;DHT22;15918;51.270;6.522;2023-03-23T12:15:38;14.60;74.10
28763;DHT22;15918;51.270;6.522;2023-03-23T12:23:25;14.60;74.40
28763;DHT22;15918;51.270;6.522;2023-03-23T12:41:20;14.70;74.80
28763;DHT22;15918;51.270;6.522;2023-03-23T12:54:37;14.70;74.90
28763;DHT22;15918;51.270;6.522;2023-03-23T12:57:20;14.60;74.90
28763;DHT22;15918;51.270;6.522;2023-03-23T13:00:14;14.70;75.00
28763;DHT22;15918;51.270;6.522;2023-03-23T13:03:07;14.70;75.10
28763;DHT22;15918;51.270;6.522;2023-03-23T13:05:38;14.70;75.10
28763;DHT22;15918;51.270;6.522;2023-03-23T13:08:11;14.70;75.10
28763;DHT22;15918;51.270;6.522;2023-03-23T13:10:50;14.70;75.20
28763;DHT22;15918;51.270;6.522;2023-03-23T13:13:22;14.70;75.30
28763;DHT22;15918;51.270;6.522;2023-03-23T13:16:08;14.70;75.40
28763;DHT22;15918;51.270;6.522;2023-03-23T13:19:06;14.80;75.50
28763;DHT22;15918;51.270;6.522;2023-03-23T13:21:56;14.80;75.50
28763;DHT22;15918;51.270;6.522;2023-03-23T13:24:27;14.80;75.60
28763;DHT22;15918;51.270;6.522;2023-03-23T13:26:54;14.80;75.60
28763;DHT22;15918;51.270;6.522;2023-03-23T13:29:23;14.80;75.60
28763;DHT22;15918;51.270;6.522;2023-03-23T13:31:50;14.80;75.70
28763;DHT22;15918;51.270;6.522;2023-03-23T13:34:22;14.90;75.80
28763;DHT22;15918;51.270;6.522;2023-03-23T13:39:23;14.90;75.70
28763;DHT22;15918;51.270;6.522;2023-03-23T13:42:18;14.90;75.70
28763;DHT22;15918;51.270;6.522;2023-03-23T13:50:05;14.90;75.80
28763;DHT22;15918;51.270;6.522;2023-03-23T13:57:55;14.90;75.80
28763;DHT22;15918;51.270;6.522;2023-03-23T14:02:49;14.90;75.80
28763;DHT22;15918;51.270;6.522;2023-03-23T14:07:57;15.00;76.00
28763;DHT22;15918;51.270;6.522;2023-03-23T14:10:32;15.00;75.80
28763;DHT22;15918;51.270;6.522;2023-03-23T14:13:00;15.00;76.10
28763;DHT22;15918;51.270;6.522;2023-03-23T14:15:37;15.10;76.40
28763;DHT22;15918;51.270;6.522;2023-03-23T14:18:05;15.10;76.10
28763;DHT22;15918;51.270;6.522;2023-03-23T14:20:34;15.10;76.00
28763;DHT22;15918;51.270;6.522;2023-03-23T14:23:00;15.10;75.90
28763;DHT22;15918;51.270;6.522;2023-03-23T14:25:30;15.10;75.80
28763;DHT22;15918;51.270;6.522;2023-03-23T14:27:57;15.10;75.70
28763;DHT22;15918;51.270;6.522;2023-03-23T14:30:33;15.10;75.70
28763;DHT22;15918;51.270;6.522;2023-03-23T14:33:06;15.20;75.70
28763;DHT22;15918;51.270;6.522;2023-03-23T14:35:37;15.10;75.60
28763;DHT22;15918;51.270;6.522;2023-03-23T14:38:04;15.10;75.60
28763;DHT22;15918;51.270;6.522;2023-03-23T14:40:30;15.20;75.50
28763;DHT22;15918;51.270;6.522;2023-03-23T14:42:57;15.20;75.40
28763;DHT22;15918;51.270;6.522;2023-03-23T14:45:24;15.20;75.30
28763;DHT22;15918;51.270;6.522;2023-03-23T14:47:53;15.20;75.20
28763;DHT22;15918;51.270;6.522;2023-03-23T14:50:29;15.20;75.10
28763;DHT22;15918;51.270;6.522;2023-03-23T14:53:09;15.20;75.00
28763;DHT22;15918;51.270;6.522;2023-03-23T14:55:36;15.20;75.00
28763;DHT22;15918;51.270;6.522;2023-03-23T14:58:06;15.20;75.00
28763;DHT22;15918;51.270;6.522;2023-03-23T15:00:38;15.20;74.90
28763;DHT22;15918;51.270;6.522;2023-03-23T15:03:06;15.20;74.80
28763;DHT22;15918;51.270;6.522;2023-03-23T15:05:37;15.20;74.60
28763;DHT22;15918;51.270;6.522;2023-03-23T15:08:13;15.20;75.20
28763;DHT22;15918;51.270;6.522;2023-03-23T15:10:40;15.20;74.40
28763;DHT22;15918;51.270;6.522;2023-03-23T15:13:11;15.30;74.40
28763;DHT22;15918;51.270;6.522;2023-03-23T15:15:37;15.20;74.20
28763;DHT22;15918;51.270;6.522;2023-03-23T15:18:03;15.20;74.10
28763;DHT22;15918;51.270;6.522;2023-03-23T15:20:49;15.20;74.00
28763;DHT22;15918;51.270;6.522;2023-03-23T15:23:26;15.20;73.80
28763;DHT22;15918;51.270;6.522;2023-03-23T15:25:54;15.20;73.90
28763;DHT22;15918;51.270;6.522;2023-03-23T15:28:31;15.20;73.80
28763;DHT22;15918;51.270;6.522;2023-03-23T15:31:01;15.20;73.70
28763;DHT22;15918;51.270;6.522;2023-03-23T15:33:33;15.20;73.80
28763;DHT22;15918;51.270;6.522;2023-03-23T15:36:06;15.20;73.60
28763;DHT22;15918;51.270;6.522;2023-03-23T15:38:33;15.20;73.60
28763;DHT22;15918;51.270;6.522;2023-03-23T15:41:05;15.20;73.70
28763;DHT22;15918;51.270;6.522;2023-03-23T15:43:48;15.20;73.60
28763;DHT22;15918;51.270;6.522;2023-03-23T15:48:48;15.20;73.40
28763;DHT22;15918;51.270;6.522;2023-03-23T15:51:16;15.20;73.30
28763;DHT22;15918;51.270;6.522;2023-03-23T15:53:42;15.20;73.30
28763;DHT22;15918;51.270;6.522;2023-03-23T15:56:10;15.20;73.20
28763;DHT22;15918;51.270;6.522;2023-03-23T15:58:36;15.20;73.20
28763;DHT22;15918;51.270;6.522;2023-03-23T16:01:06;15.20;73.20
28763;DHT22;15918;51.270;6.522;2023-03-23T16:03:51;15.20;73.00
28763;DHT22;15918;51.270;6.522;2023-03-23T16:06:19;15.30;73.00
28763;DHT22;15918;51.270;6.522;2023-03-23T16:08:46;15.20;73.00
28763;DHT22;15918;51.270;6.522;2023-03-23T16:11:13;15.30;73.00
28763;DHT22;15918;51.270;6.522;2023-03-23T16:13:39;15.30;72.90
28763;DHT22;15918;51.270;6.522;2023-03-23T16:16:06;15.30;72.90
28763;DHT22;15918;51.270;6.522;2023-03-23T16:18:35;15.30;72.90
28763;DHT22;15918;51.270;6.522;2023-03-23T16:21:01;15.30;72.90
28763;DHT22;15918;51.270;6.522;2023-03-23T16:23:27;15.30;72.90
28763;DHT22;15918;51.270;6.522;2023-03-23T16:25:53;15.30;72.80
28763;DHT22;15918;51.270;6.522;2023-03-23T16:28:19;15.30;72.70
28763;DHT22;15918;51.270;6.522;2023-03-23T16:30:45;15.30;72.70
28763;DHT22;15918;51.270;6.522;2023-03-23T16:33:12;15.30;72.70
28763;DHT22;15918;51.270;6.522;2023-03-23T16:35:37;15.30;72.60
28763;DHT22;15918;51.270;6.522;2023-03-23T16:38:04;15.30;72.60
28763;DHT22;15918;51.270;6.522;2023-03-23T16:40:30;15.30;72.60
28763;DHT22;15918;51.270;6.522;2023-03-23T16:42:56;15.30;72.50
28763;DHT22;15918;51.270;6.522;2023-03-23T16:45:22;15.30;72.50
28763;DHT22;15918;51.270;6.522;2023-03-23T16:47:48;15.30;72.50
28763;DHT22;15918;51.270;6.522;2023-03-23T16:50:16;15.30;72.50
28763;DHT22;15918;51.270;6.522;2023-03-23T16:52:43;15.30;72.40
28763;DHT22;15918;51.270;6.522;2023-03-23T16:55:10;15.30;72.40
28763;DHT22;15918;51.270;6.522;2023-03-23T16:57:37;15.30;72.40
28763;DHT22;15918;51.270;6.522;2023-03-23T17:00:09;15.30;72.30
28763;DHT22;15918;51.270;6.522;2023-03-23T17:02:36;15.30;72.20
28763;DHT22;15918;51.270;6.522;2023-03-23T17:05:02;15.30;72.10
28763;DHT22;15918;51.270;6.522;2023-03-23T17:07:28;15.30;72.00
28763;DHT22;15918;51.270;6.522;2023-03-23T17:09:54;15.30;71.90
28763;DHT22;15918;51.270;6.522;2023-03-23T17:12:20;15.30;71.70
28763;DHT22;15918;51.270;6.522;2023-03-23T17:14:45;15.40;72.10
28763;DHT22;15918;51.270;6.522;2023-03-23T17:17:11;15.30;71.50
28763;DHT22;15918;51.270;6.522;2023-03-23T17:19:37;15.30;71.40
28763;DHT22;15918;51.270;6.522;2023-03-23T17:22:02;15.30;71.30
28763;DHT22;15918;51.270;6.522;2023-03-23T17:24:28;15.30;71.20